sensor_id;sensor_type;location;lat;lon;timestamp;P1;durP1;ratioP1;P2;durP2;ratioP2
5153;SDS011;2595;53.584;10.084;2022-10-13T00:01:18;4.90;;;3.60;;
5153;SDS011;2595;53.584;10.084;2022-10-13T00:03:45;4.43;;;3.33;;
5153;SDS011;2595;53.584;10.084;2022-10-13T00:06:11;4.43;;;3.63;;
5153;SDS011;2595;53.584;10.084;2022-10-13T00:08:38;5.63;;;3.60;;
5153;SDS011;2595;53.584;10.084;2022-10-13T00:11:12;4.73;;;4.33;;
5153;SDS011;2595;53.584;10.084;2022-10-13T00:13:41;5.57;;;3.90;;
5153;SDS011;2595;53.584;10.084;2022-10-13T00:16:08;3.90;;;3.40;;
5153;SDS011;2595;53.584;10.084;2022-10-13T00:18:34;5.60;;;4.23;;
5153;SDS011;2595;53.584;10.084;2022-10-13T00:21:00;5.03;;;3.50;;
5153;SDS011;2595;53.584;10.084;2022-10-13T00:23:30;4.40;;;3.87;;
5153;SDS011;2595;53.584;10.084;2022-10-13T00:26:01;7.60;;;3.53;;
5153;SDS011;2595;53.584;10.084;2022-10-13T00:28:28;4.50;;;4.10;;
5153;SDS011;2595;53.584;10.084;2022-10-13T00:30:54;8.07;;;3.83;;
5153;SDS011;2595;53.584;10.084;2022-10-13T00:33:20;6.93;;;3.30;;
5153;SDS011;2595;53.584;10.084;2022-10-13T00:35:46;4.90;;;3.50;;
5153;SDS011;2595;53.584;10.084;2022-10-13T00:38:13;5.50;;;3.37;;
5153;SDS011;2595;53.584;10.084;2022-10-13T00:40:47;10.00;;;3.53;;
5153;SDS011;2595;53.584;10.084;2022-10-13T00:43:16;5.37;;;3.47;;
5153;SDS011;2595;53.584;10.084;2022-10-13T00:45:42;3.93;;;3.60;;
5153;SDS011;2595;53.584;10.084;2022-10-13T00:48:08;5.43;;;3.30;;
5153;SDS011;2595;53.584;10.084;2022-10-13T00:50:34;3.63;;;3.33;;
5153;SDS011;2595;53.584;10.084;2022-10-13T00:53:05;5.03;;;3.60;;
5153;SDS011;2595;53.584;10.084;2022-10-13T00:55:32;4.00;;;3.73;;
5153;SDS011;2595;53.584;10.084;2022-10-13T00:58:01;6.43;;;3.57;;
5153;SDS011;2595;53.584;10.084;2022-10-13T01:00:29;4.13;;;3.67;;
5153;SDS011;2595;53.584;10.084;2022-10-13T01:02:56;3.40;;;3.20;;
5153;SDS011;2595;53.584;10.084;2022-10-13T01:05:22;4.30;;;3.23;;
5153;SDS011;2595;53.584;10.084;2022-10-13T01:07:49;3.47;;;3.17;;
5153;SDS011;2595;53.584;10.084;2022-10-13T01:10:22;3.40;;;3.10;;
5153;SDS011;2595;53.584;10.084;2022-10-13T01:12:58;4.83;;;4.23;;
5153;SDS011;2595;53.584;10.084;2022-10-13T01:15:35;4.10;;;3.60;;
5153;SDS011;2595;53.584;10.084;2022-10-13T01:18:23;8.33;;;3.70;;
5153;SDS011;2595;53.584;10.084;2022-10-13T01:20:59;7.23;;;3.57;;
5153;SDS011;2595;53.584;10.084;2022-10-13T01:32:13;3.03;;;2.77;;
5153;SDS011;2595;53.584;10.084;2022-10-13T01:37:49;4.10;;;3.20;;
5153;SDS011;2595;53.584;10.084;2022-10-13T01:43:09;4.40;;;3.83;;
5153;SDS011;2595;53.584;10.084;2022-10-13T01:45:52;3.03;;;2.53;;
5153;SDS011;2595;53.584;10.084;2022-10-13T01:48:27;7.07;;;3.50;;
5153;SDS011;2595;53.584;10.084;2022-10-13T01:50:54;7.57;;;3.83;;
5153;SDS011;2595;53.584;10.084;2022-10-13T01:53:21;3.73;;;3.23;;
5153;SDS011;2595;53.584;10.084;2022-10-13T01:55:51;3.40;;;3.20;;
5153;SDS011;2595;53.584;10.084;2022-10-13T01:58:22;3.50;;;3.30;;
5153;SDS011;2595;53.584;10.084;2022-10-13T02:03:48;3.10;;;2.90;;
5153;SDS011;2595;53.584;10.084;2022-10-13T02:06:31;5.13;;;4.30;;
5153;SDS011;2595;53.584;10.084;2022-10-13T02:11:45;2.80;;;2.70;;
5153;SDS011;2595;53.584;10.084;2022-10-13T02:14:17;4.23;;;3.27;;
5153;SDS011;2595;53.584;10.084;2022-10-13T02:16:46;4.43;;;3.63;;
5153;SDS011;2595;53.584;10.084;2022-10-13T02:19:15;3.57;;;3.27;;
5153;SDS011;2595;53.584;10.084;2022-10-13T02:21:42;3.37;;;3.13;;
5153;SDS011;2595;53.584;10.084;2022-10-13T02:24:09;8.77;;;4.33;;
5153;SDS011;2595;53.584;10.084;2022-10-13T02:26:35;3.37;;;3.07;;
5153;SDS011;2595;53.584;10.084;2022-10-13T02:31:34;3.97;;;3.67;;
5153;SDS011;2595;53.584;10.084;2022-10-13T02:34:00;5.70;;;3.57;;
5153;SDS011;2595;53.584;10.084;2022-10-13T02:36:26;6.83;;;4.23;;
5153;SDS011;2595;53.584;10.084;2022-10-13T02:38:51;7.67;;;3.20;;
5153;SDS011;2595;53.584;10.084;2022-10-13T02:41:17;4.37;;;3.53;;
5153;SDS011;2595;53.584;10.084;2022-10-13T02:43:42;5.13;;;4.70;;
5153;SDS011;2595;53.584;10.084;2022-10-13T02:46:08;3.57;;;3.20;;
5153;SDS011;2595;53.584;10.084;2022-10-13T02:48:34;9.13;;;3.63;;
5153;SDS011;2595;53.584;10.084;2022-10-13T02:50:59;4.63;;;3.50;;
5153;SDS011;2595;53.584;10.084;2022-10-13T02:53:25;3.60;;;3.30;;
5153;SDS011;2595;53.584;10.084;2022-10-13T02:55:50;3.60;;;3.30;;
5153;SDS011;2595;53.584;10.084;2022-10-13T02:58:16;7.40;;;3.97;;
5153;SDS011;2595;53.584;10.084;2022-10-13T03:00:41;3.30;;;3.00;;
5153;SDS011;2595;53.584;10.084;2022-10-13T03:03:07;5.37;;;4.17;;
5153;SDS011;2595;53.584;10.084;2022-10-13T03:05:35;8.80;;;3.57;;
5153;SDS011;2595;53.584;10.084;2022-10-13T03:08:01;4.20;;;3.90;;
5153;SDS011;2595;53.584;10.084;2022-10-13T03:10:27;16.50;;;4.70;;
5153;SDS011;2595;53.584;10.084;2022-10-13T03:12:55;5.33;;;3.70;;
5153;SDS011;2595;53.584;10.084;2022-10-13T03:15:20;5.17;;;4.83;;
5153;SDS011;2595;53.584;10.084;2022-10-13T03:17:46;6.70;;;3.70;;
5153;SDS011;2595;53.584;10.084;2022-10-13T03:20:12;6.33;;;5.83;;
5153;SDS011;2595;53.584;10.084;2022-10-13T03:22:37;8.70;;;5.20;;
5153;SDS011;2595;53.584;10.084;2022-10-13T03:25:03;6.57;;;5.07;;
5153;SDS011;2595;53.584;10.084;2022-10-13T03:27:29;4.30;;;3.90;;
5153;SDS011;2595;53.584;10.084;2022-10-13T03:29:55;5.30;;;4.30;;
5153;SDS011;2595;53.584;10.084;2022-10-13T03:32:21;5.77;;;4.70;;
5153;SDS011;2595;53.584;10.084;2022-10-13T03:34:46;4.73;;;4.33;;
5153;SDS011;2595;53.584;10.084;2022-10-13T03:37:13;5.70;;;5.07;;
5153;SDS011;2595;53.584;10.084;2022-10-13T03:39:38;8.07;;;4.47;;
5153;SDS011;2595;53.584;10.084;2022-10-13T03:42:04;4.70;;;4.10;;
5153;SDS011;2595;53.584;10.084;2022-10-13T03:44:30;5.70;;;4.30;;
5153;SDS011;2595;53.584;10.084;2022-10-13T03:46:55;4.80;;;3.90;;
5153;SDS011;2595;53.584;10.084;2022-10-13T03:49:21;3.70;;;3.47;;
5153;SDS011;2595;53.584;10.084;2022-10-13T03:51:46;9.33;;;4.97;;
5153;SDS011;2595;53.584;10.084;2022-10-13T03:54:12;4.47;;;3.87;;
5153;SDS011;2595;53.584;10.084;2022-10-13T03:56:38;3.50;;;3.20;;
5153;SDS011;2595;53.584;10.084;2022-10-13T03:59:05;6.97;;;4.40;;
5153;SDS011;2595;53.584;10.084;2022-10-13T04:01:30;5.40;;;3.43;;
5153;SDS011;2595;53.584;10.084;2022-10-13T04:03:57;3.90;;;3.60;;
5153;SDS011;2595;53.584;10.084;2022-10-13T04:06:26;4.90;;;4.17;;
5153;SDS011;2595;53.584;10.084;2022-10-13T04:08:52;6.60;;;4.93;;
5153;SDS011;2595;53.584;10.084;2022-10-13T04:11:19;5.70;;;4.30;;
5153;SDS011;2595;53.584;10.084;2022-10-13T04:13:45;7.63;;;4.90;;
5153;SDS011;2595;53.584;10.084;2022-10-13T04:16:14;6.00;;;4.80;;
5153;SDS011;2595;53.584;10.084;2022-10-13T04:18:51;4.23;;;3.83;;
5153;SDS011;2595;53.584;10.084;2022-10-13T04:21:28;3.17;;;2.97;;
5153;SDS011;2595;53.584;10.084;2022-10-13T04:23:56;4.70;;;4.20;;
5153;SDS011;2595;53.584;10.084;2022-10-13T04:26:22;5.87;;;4.90;;
5153;SDS011;2595;53.584;10.084;2022-10-13T04:28:50;3.80;;;3.50;;
5153;SDS011;2595;53.584;10.084;2022-10-13T04:31:16;11.70;;;4.63;;
5153;SDS011;2595;53.584;10.084;2022-10-13T04:33:43;5.33;;;4.93;;
5153;SDS011;2595;53.584;10.084;2022-10-13T04:36:10;6.60;;;4.40;;
5153;SDS011;2595;53.584;10.084;2022-10-13T04:38:37;5.20;;;4.70;;
5153;SDS011;2595;53.584;10.084;2022-10-13T04:41:03;4.87;;;4.30;;
5153;SDS011;2595;53.584;10.084;2022-10-13T04:43:30;4.07;;;3.87;;
5153;SDS011;2595;53.584;10.084;2022-10-13T04:46:03;4.70;;;4.40;;
5153;SDS011;2595;53.584;10.084;2022-10-13T04:48:30;4.27;;;3.87;;
5153;SDS011;2595;53.584;10.084;2022-10-13T04:51:01;4.33;;;3.93;;
5153;SDS011;2595;53.584;10.084;2022-10-13T04:53:31;4.83;;;4.53;;
5153;SDS011;2595;53.584;10.084;2022-10-13T04:56:07;7.10;;;3.80;;
5153;SDS011;2595;53.584;10.084;2022-10-13T04:58:35;4.83;;;4.50;;
5153;SDS011;2595;53.584;10.084;2022-10-13T05:01:03;7.00;;;6.13;;
5153;SDS011;2595;53.584;10.084;2022-10-13T05:03:29;5.90;;;4.60;;
5153;SDS011;2595;53.584;10.084;2022-10-13T05:05:55;6.53;;;4.70;;
5153;SDS011;2595;53.584;10.084;2022-10-13T05:08:21;5.17;;;4.60;;
5153;SDS011;2595;53.584;10.084;2022-10-13T05:10:54;5.53;;;4.50;;
5153;SDS011;2595;53.584;10.084;2022-10-13T05:13:24;4.50;;;4.10;;
5153;SDS011;2595;53.584;10.084;2022-10-13T05:15:51;4.40;;;4.10;;
5153;SDS011;2595;53.584;10.084;2022-10-13T05:18:17;5.53;;;4.57;;
5153;SDS011;2595;53.584;10.084;2022-10-13T05:20:43;5.77;;;5.20;;
5153;SDS011;2595;53.584;10.084;2022-10-13T05:23:10;5.13;;;4.60;;
5153;SDS011;2595;53.584;10.084;2022-10-13T05:25:35;10.17;;;5.70;;
5153;SDS011;2595;53.584;10.084;2022-10-13T05:28:02;5.17;;;4.73;;
5153;SDS011;2595;53.584;10.084;2022-10-13T05:30:29;22.43;;;5.27;;
5153;SDS011;2595;53.584;10.084;2022-10-13T05:32:55;5.10;;;4.80;;
5153;SDS011;2595;53.584;10.084;2022-10-13T05:35:22;5.07;;;4.77;;
5153;SDS011;2595;53.584;10.084;2022-10-13T05:37:47;4.70;;;4.30;;
5153;SDS011;2595;53.584;10.084;2022-10-13T05:40:13;5.40;;;4.47;;
5153;SDS011;2595;53.584;10.084;2022-10-13T05:42:39;5.40;;;4.87;;
5153;SDS011;2595;53.584;10.084;2022-10-13T05:45:06;5.37;;;4.97;;
5153;SDS011;2595;53.584;10.084;2022-10-13T05:47:33;7.53;;;5.10;;
5153;SDS011;2595;53.584;10.084;2022-10-13T05:49:59;7.00;;;4.33;;
5153;SDS011;2595;53.584;10.084;2022-10-13T05:52:25;5.53;;;5.03;;
5153;SDS011;2595;53.584;10.084;2022-10-13T05:54:53;4.80;;;4.50;;
5153;SDS011;2595;53.584;10.084;2022-10-13T05:57:26;6.37;;;5.10;;
5153;SDS011;2595;53.584;10.084;2022-10-13T06:00:02;5.47;;;4.97;;
5153;SDS011;2595;53.584;10.084;2022-10-13T06:02:30;6.40;;;5.20;;
5153;SDS011;2595;53.584;10.084;2022-10-13T06:05:00;6.80;;;5.90;;
5153;SDS011;2595;53.584;10.084;2022-10-13T06:07:28;7.00;;;6.40;;
5153;SDS011;2595;53.584;10.084;2022-10-13T06:09:55;6.10;;;5.73;;
5153;SDS011;2595;53.584;10.084;2022-10-13T06:12:22;8.60;;;5.03;;
5153;SDS011;2595;53.584;10.084;2022-10-13T06:14:47;7.33;;;5.30;;
5153;SDS011;2595;53.584;10.084;2022-10-13T06:17:13;6.77;;;5.90;;
5153;SDS011;2595;53.584;10.084;2022-10-13T06:19:39;6.37;;;5.87;;
5153;SDS011;2595;53.584;10.084;2022-10-13T06:22:04;6.83;;;6.20;;
5153;SDS011;2595;53.584;10.084;2022-10-13T06:24:30;12.97;;;5.07;;
5153;SDS011;2595;53.584;10.084;2022-10-13T06:26:56;8.13;;;6.50;;
5153;SDS011;2595;53.584;10.084;2022-10-13T06:29:21;6.13;;;5.83;;
5153;SDS011;2595;53.584;10.084;2022-10-13T06:31:47;7.23;;;6.60;;
5153;SDS011;2595;53.584;10.084;2022-10-13T06:34:13;7.93;;;5.80;;
5153;SDS011;2595;53.584;10.084;2022-10-13T06:36:38;6.43;;;5.93;;
5153;SDS011;2595;53.584;10.084;2022-10-13T06:39:05;6.93;;;6.33;;
5153;SDS011;2595;53.584;10.084;2022-10-13T06:41:31;7.57;;;6.80;;
5153;SDS011;2595;53.584;10.084;2022-10-13T06:43:57;16.63;;;6.37;;
5153;SDS011;2595;53.584;10.084;2022-10-13T06:46:22;10.13;;;6.60;;
5153;SDS011;2595;53.584;10.084;2022-10-13T06:48:48;6.40;;;5.90;;
5153;SDS011;2595;53.584;10.084;2022-10-13T06:51:15;11.53;;;6.93;;
5153;SDS011;2595;53.584;10.084;2022-10-13T06:53:40;7.00;;;5.70;;
5153;SDS011;2595;53.584;10.084;2022-10-13T06:56:06;6.87;;;6.27;;
5153;SDS011;2595;53.584;10.084;2022-10-13T06:58:33;7.60;;;6.90;;
5153;SDS011;2595;53.584;10.084;2022-10-13T07:01:00;7.40;;;6.70;;
5153;SDS011;2595;53.584;10.084;2022-10-13T07:03:25;10.77;;;7.70;;
5153;SDS011;2595;53.584;10.084;2022-10-13T07:05:51;9.57;;;6.63;;
5153;SDS011;2595;53.584;10.084;2022-10-13T07:08:17;7.00;;;6.37;;
5153;SDS011;2595;53.584;10.084;2022-10-13T07:10:43;7.90;;;5.70;;
5153;SDS011;2595;53.584;10.084;2022-10-13T07:13:08;6.10;;;5.60;;
5153;SDS011;2595;53.584;10.084;2022-10-13T07:15:38;9.07;;;5.37;;
5153;SDS011;2595;53.584;10.084;2022-10-13T07:18:04;7.93;;;7.20;;
5153;SDS011;2595;53.584;10.084;2022-10-13T07:20:30;7.13;;;6.40;;
5153;SDS011;2595;53.584;10.084;2022-10-13T07:22:56;10.40;;;7.13;;
5153;SDS011;2595;53.584;10.084;2022-10-13T07:25:22;8.07;;;7.33;;
5153;SDS011;2595;53.584;10.084;2022-10-13T07:27:48;7.40;;;6.80;;
5153;SDS011;2595;53.584;10.084;2022-10-13T07:30:14;8.33;;;7.60;;
5153;SDS011;2595;53.584;10.084;2022-10-13T07:32:39;7.37;;;6.67;;
5153;SDS011;2595;53.584;10.084;2022-10-13T07:35:06;8.30;;;7.43;;
5153;SDS011;2595;53.584;10.084;2022-10-13T07:37:36;12.53;;;8.20;;
5153;SDS011;2595;53.584;10.084;2022-10-13T07:40:03;11.70;;;7.67;;
5153;SDS011;2595;53.584;10.084;2022-10-13T07:42:30;7.77;;;7.00;;
5153;SDS011;2595;53.584;10.084;2022-10-13T07:44:56;10.53;;;7.40;;
5153;SDS011;2595;53.584;10.084;2022-10-13T07:47:21;14.90;;;7.83;;
5153;SDS011;2595;53.584;10.084;2022-10-13T07:49:47;10.53;;;8.47;;
5153;SDS011;2595;53.584;10.084;2022-10-13T07:52:13;8.77;;;8.00;;
5153;SDS011;2595;53.584;10.084;2022-10-13T07:54:38;8.77;;;7.87;;
5153;SDS011;2595;53.584;10.084;2022-10-13T07:57:04;11.37;;;8.97;;
5153;SDS011;2595;53.584;10.084;2022-10-13T07:59:32;10.20;;;7.27;;
5153;SDS011;2595;53.584;10.084;2022-10-13T08:01:58;11.20;;;7.53;;
5153;SDS011;2595;53.584;10.084;2022-10-13T08:04:27;9.50;;;8.60;;
5153;SDS011;2595;53.584;10.084;2022-10-13T08:06:55;12.50;;;8.50;;
5153;SDS011;2595;53.584;10.084;2022-10-13T08:09:20;13.80;;;8.10;;
5153;SDS011;2595;53.584;10.084;2022-10-13T08:11:46;13.00;;;8.40;;
5153;SDS011;2595;53.584;10.084;2022-10-13T08:14:11;11.53;;;10.37;;
5153;SDS011;2595;53.584;10.084;2022-10-13T08:16:37;9.60;;;8.80;;
5153;SDS011;2595;53.584;10.084;2022-10-13T08:19:04;9.13;;;7.87;;
5153;SDS011;2595;53.584;10.084;2022-10-13T08:21:30;12.23;;;8.53;;
5153;SDS011;2595;53.584;10.084;2022-10-13T08:23:55;9.40;;;8.70;;
5153;SDS011;2595;53.584;10.084;2022-10-13T08:26:22;15.03;;;7.93;;
5153;SDS011;2595;53.584;10.084;2022-10-13T08:28:49;7.77;;;7.23;;
5153;SDS011;2595;53.584;10.084;2022-10-13T08:31:15;12.10;;;9.07;;
5153;SDS011;2595;53.584;10.084;2022-10-13T08:33:41;9.23;;;8.33;;
5153;SDS011;2595;53.584;10.084;2022-10-13T08:36:07;8.33;;;7.73;;
5153;SDS011;2595;53.584;10.084;2022-10-13T08:38:33;11.53;;;9.63;;
5153;SDS011;2595;53.584;10.084;2022-10-13T08:40:59;13.80;;;10.40;;
5153;SDS011;2595;53.584;10.084;2022-10-13T08:43:25;9.10;;;7.33;;
5153;SDS011;2595;53.584;10.084;2022-10-13T08:45:55;11.53;;;10.53;;
5153;SDS011;2595;53.584;10.084;2022-10-13T08:48:26;12.40;;;8.13;;
5153;SDS011;2595;53.584;10.084;2022-10-13T08:50:58;12.17;;;9.00;;
5153;SDS011;2595;53.584;10.084;2022-10-13T08:53:31;11.77;;;8.43;;
5153;SDS011;2595;53.584;10.084;2022-10-13T08:58:31;21.03;;;10.47;;
5153;SDS011;2595;53.584;10.084;2022-10-13T09:03:36;11.60;;;9.47;;
5153;SDS011;2595;53.584;10.084;2022-10-13T09:08:40;11.23;;;10.23;;
5153;SDS011;2595;53.584;10.084;2022-10-13T09:11:29;14.20;;;9.80;;
5153;SDS011;2595;53.584;10.084;2022-10-13T09:14:03;13.03;;;10.30;;
5153;SDS011;2595;53.584;10.084;2022-10-13T09:16:37;15.83;;;9.73;;
5153;SDS011;2595;53.584;10.084;2022-10-13T09:21:43;11.87;;;10.80;;
5153;SDS011;2595;53.584;10.084;2022-10-13T09:24:13;11.77;;;9.90;;
5153;SDS011;2595;53.584;10.084;2022-10-13T09:26:42;12.47;;;10.53;;
5153;SDS011;2595;53.584;10.084;2022-10-13T09:29:19;16.23;;;11.83;;
5153;SDS011;2595;53.584;10.084;2022-10-13T09:31:49;18.80;;;12.47;;
5153;SDS011;2595;53.584;10.084;2022-10-13T09:39:30;15.67;;;11.50;;
5153;SDS011;2595;53.584;10.084;2022-10-13T09:42:08;13.40;;;12.03;;
5153;SDS011;2595;53.584;10.084;2022-10-13T09:44:55;15.53;;;9.83;;
5153;SDS011;2595;53.584;10.084;2022-10-13T09:47:24;16.57;;;11.87;;
5153;SDS011;2595;53.584;10.084;2022-10-13T09:52:41;15.50;;;11.13;;
5153;SDS011;2595;53.584;10.084;2022-10-13T09:55:25;14.30;;;11.23;;
5153;SDS011;2595;53.584;10.084;2022-10-13T09:57:54;22.30;;;13.93;;
5153;SDS011;2595;53.584;10.084;2022-10-13T10:00:25;19.13;;;12.93;;
5153;SDS011;2595;53.584;10.084;2022-10-13T10:05:55;14.70;;;11.10;;
5153;SDS011;2595;53.584;10.084;2022-10-13T10:08:35;16.73;;;11.77;;
5153;SDS011;2595;53.584;10.084;2022-10-13T10:11:12;24.13;;;11.93;;
5153;SDS011;2595;53.584;10.084;2022-10-13T10:13:41;13.13;;;11.10;;
5153;SDS011;2595;53.584;10.084;2022-10-13T10:16:10;18.00;;;12.87;;
5153;SDS011;2595;53.584;10.084;2022-10-13T10:19:05;20.50;;;12.10;;
5153;SDS011;2595;53.584;10.084;2022-10-13T10:21:48;19.37;;;12.43;;
5153;SDS011;2595;53.584;10.084;2022-10-13T10:30:01;24.03;;;11.20;;
5153;SDS011;2595;53.584;10.084;2022-10-13T10:35:03;23.43;;;12.67;;
5153;SDS011;2595;53.584;10.084;2022-10-13T10:37:43;16.30;;;12.07;;
5153;SDS011;2595;53.584;10.084;2022-10-13T10:40:39;17.97;;;11.67;;
5153;SDS011;2595;53.584;10.084;2022-10-13T10:46:00;24.80;;;14.10;;
5153;SDS011;2595;53.584;10.084;2022-10-13T10:48:33;12.97;;;11.60;;
5153;SDS011;2595;53.584;10.084;2022-10-13T10:51:02;17.50;;;12.33;;
5153;SDS011;2595;53.584;10.084;2022-10-13T10:56:26;11.43;;;10.33;;
5153;SDS011;2595;53.584;10.084;2022-10-13T10:59:15;18.03;;;11.97;;
5153;SDS011;2595;53.584;10.084;2022-10-13T11:04:39;11.20;;;10.07;;
5153;SDS011;2595;53.584;10.084;2022-10-13T11:07:33;18.20;;;12.30;;
5153;SDS011;2595;53.584;10.084;2022-10-13T11:17:31;20.50;;;12.53;;
5153;SDS011;2595;53.584;10.084;2022-10-13T11:19:58;15.10;;;11.53;;
5153;SDS011;2595;53.584;10.084;2022-10-13T11:22:25;15.70;;;12.90;;
5153;SDS011;2595;53.584;10.084;2022-10-13T11:24:55;18.53;;;12.37;;
5153;SDS011;2595;53.584;10.084;2022-10-13T11:27:24;17.10;;;13.27;;
5153;SDS011;2595;53.584;10.084;2022-10-13T11:29:51;17.03;;;12.00;;
5153;SDS011;2595;53.584;10.084;2022-10-13T11:59:33;17.07;;;12.07;;
5153;SDS011;2595;53.584;10.084;2022-10-13T12:04:36;14.97;;;12.30;;
5153;SDS011;2595;53.584;10.084;2022-10-13T12:07:07;15.33;;;12.40;;
5153;SDS011;2595;53.584;10.084;2022-10-13T12:09:39;13.27;;;11.97;;
5153;SDS011;2595;53.584;10.084;2022-10-13T12:12:14;14.67;;;10.40;;
5153;SDS011;2595;53.584;10.084;2022-10-13T12:14:42;16.53;;;11.17;;
5153;SDS011;2595;53.584;10.084;2022-10-13T12:17:20;16.30;;;11.03;;
5153;SDS011;2595;53.584;10.084;2022-10-13T12:19:47;11.60;;;10.50;;
5153;SDS011;2595;53.584;10.084;2022-10-13T12:22:14;12.70;;;11.37;;
5153;SDS011;2595;53.584;10.084;2022-10-13T12:24:39;13.27;;;10.80;;
5153;SDS011;2595;53.584;10.084;2022-10-13T12:27:09;12.23;;;9.97;;
5153;SDS011;2595;53.584;10.084;2022-10-13T12:29:41;13.87;;;10.77;;
5153;SDS011;2595;53.584;10.084;2022-10-13T12:32:19;14.00;;;10.30;;
5153;SDS011;2595;53.584;10.084;2022-10-13T12:34:47;13.93;;;10.00;;
5153;SDS011;2595;53.584;10.084;2022-10-13T12:37:16;9.27;;;8.33;;
5153;SDS011;2595;53.584;10.084;2022-10-13T12:39:50;11.80;;;10.00;;
5153;SDS011;2595;53.584;10.084;2022-10-13T12:42:16;10.27;;;9.27;;
5153;SDS011;2595;53.584;10.084;2022-10-13T12:44:43;9.50;;;8.50;;
5153;SDS011;2595;53.584;10.084;2022-10-13T12:47:34;13.97;;;9.33;;
5153;SDS011;2595;53.584;10.084;2022-10-13T12:53:08;10.43;;;9.27;;
5153;SDS011;2595;53.584;10.084;2022-10-13T12:55:36;13.20;;;9.43;;
5153;SDS011;2595;53.584;10.084;2022-10-13T12:58:35;9.03;;;8.13;;
5153;SDS011;2595;53.584;10.084;2022-10-13T13:03:28;10.87;;;9.83;;
5153;SDS011;2595;53.584;10.084;2022-10-13T13:08:38;15.07;;;9.03;;
5153;SDS011;2595;53.584;10.084;2022-10-13T13:11:06;12.10;;;9.10;;
5153;SDS011;2595;53.584;10.084;2022-10-13T13:13:45;11.07;;;9.07;;
5153;SDS011;2595;53.584;10.084;2022-10-13T13:16:12;14.23;;;7.40;;
5153;SDS011;2595;53.584;10.084;2022-10-13T13:18:40;12.67;;;9.50;;
5153;SDS011;2595;53.584;10.084;2022-10-13T13:21:08;11.83;;;9.57;;
5153;SDS011;2595;53.584;10.084;2022-10-13T13:23:35;11.30;;;9.50;;
5153;SDS011;2595;53.584;10.084;2022-10-13T13:28:37;12.00;;;9.53;;
5153;SDS011;2595;53.584;10.084;2022-10-13T13:31:07;9.57;;;8.73;;
5153;SDS011;2595;53.584;10.084;2022-10-13T13:33:33;18.17;;;9.87;;
5153;SDS011;2595;53.584;10.084;2022-10-13T13:35:59;11.10;;;9.67;;
5153;SDS011;2595;53.584;10.084;2022-10-13T13:38:25;10.47;;;9.37;;
5153;SDS011;2595;53.584;10.084;2022-10-13T13:40:50;14.93;;;8.80;;
5153;SDS011;2595;53.584;10.084;2022-10-13T13:43:16;15.17;;;10.23;;
5153;SDS011;2595;53.584;10.084;2022-10-13T13:45:41;13.80;;;10.57;;
5153;SDS011;2595;53.584;10.084;2022-10-13T13:48:08;10.47;;;9.37;;
5153;SDS011;2595;53.584;10.084;2022-10-13T13:50:35;16.80;;;10.87;;
5153;SDS011;2595;53.584;10.084;2022-10-13T13:53:02;11.40;;;7.60;;
5153;SDS011;2595;53.584;10.084;2022-10-13T13:55:28;12.17;;;9.53;;
5153;SDS011;2595;53.584;10.084;2022-10-13T13:57:54;10.07;;;9.10;;
5153;SDS011;2595;53.584;10.084;2022-10-13T14:00:21;9.87;;;8.70;;
5153;SDS011;2595;53.584;10.084;2022-10-13T14:02:47;9.80;;;8.50;;
5153;SDS011;2595;53.584;10.084;2022-10-13T14:05:13;13.87;;;11.03;;
5153;SDS011;2595;53.584;10.084;2022-10-13T14:07:39;16.03;;;10.40;;
5153;SDS011;2595;53.584;10.084;2022-10-13T14:10:05;8.73;;;7.80;;
5153;SDS011;2595;53.584;10.084;2022-10-13T14:12:32;15.70;;;11.07;;
5153;SDS011;2595;53.584;10.084;2022-10-13T14:14:58;14.23;;;10.70;;
5153;SDS011;2595;53.584;10.084;2022-10-13T14:17:27;10.10;;;9.07;;
5153;SDS011;2595;53.584;10.084;2022-10-13T14:19:53;9.67;;;8.73;;
5153;SDS011;2595;53.584;10.084;2022-10-13T14:22:18;12.70;;;7.90;;
5153;SDS011;2595;53.584;10.084;2022-10-13T14:24:44;13.43;;;9.00;;
5153;SDS011;2595;53.584;10.084;2022-10-13T14:27:10;10.40;;;9.43;;
5153;SDS011;2595;53.584;10.084;2022-10-13T14:29:36;11.90;;;10.67;;
5153;SDS011;2595;53.584;10.084;2022-10-13T14:32:02;10.10;;;9.17;;
5153;SDS011;2595;53.584;10.084;2022-10-13T14:34:27;16.63;;;8.93;;
5153;SDS011;2595;53.584;10.084;2022-10-13T14:36:53;14.60;;;8.70;;
5153;SDS011;2595;53.584;10.084;2022-10-13T14:39:19;14.00;;;8.07;;
5153;SDS011;2595;53.584;10.084;2022-10-13T14:41:45;12.53;;;9.60;;
5153;SDS011;2595;53.584;10.084;2022-10-13T14:44:11;9.83;;;8.67;;
5153;SDS011;2595;53.584;10.084;2022-10-13T14:46:37;8.60;;;7.90;;
5153;SDS011;2595;53.584;10.084;2022-10-13T14:49:03;8.23;;;7.67;;
5153;SDS011;2595;53.584;10.084;2022-10-13T14:51:30;8.67;;;7.80;;
5153;SDS011;2595;53.584;10.084;2022-10-13T14:53:56;11.53;;;9.33;;
5153;SDS011;2595;53.584;10.084;2022-10-13T14:56:22;9.93;;;8.13;;
5153;SDS011;2595;53.584;10.084;2022-10-13T14:58:50;16.37;;;9.77;;
5153;SDS011;2595;53.584;10.084;2022-10-13T15:01:17;10.30;;;9.47;;
5153;SDS011;2595;53.584;10.084;2022-10-13T15:03:43;9.90;;;9.00;;
5153;SDS011;2595;53.584;10.084;2022-10-13T15:06:10;15.33;;;9.03;;
5153;SDS011;2595;53.584;10.084;2022-10-13T15:08:41;11.90;;;7.70;;
5153;SDS011;2595;53.584;10.084;2022-10-13T15:11:07;12.67;;;8.17;;
5153;SDS011;2595;53.584;10.084;2022-10-13T15:13:33;10.10;;;8.20;;
5153;SDS011;2595;53.584;10.084;2022-10-13T15:15:59;11.20;;;8.90;;
5153;SDS011;2595;53.584;10.084;2022-10-13T15:18:25;10.63;;;8.80;;
5153;SDS011;2595;53.584;10.084;2022-10-13T15:20:52;11.80;;;8.70;;
5153;SDS011;2595;53.584;10.084;2022-10-13T15:23:18;10.40;;;8.77;;
5153;SDS011;2595;53.584;10.084;2022-10-13T15:25:50;9.13;;;8.10;;
5153;SDS011;2595;53.584;10.084;2022-10-13T15:28:21;15.27;;;11.50;;
5153;SDS011;2595;53.584;10.084;2022-10-13T15:30:47;11.90;;;8.47;;
5153;SDS011;2595;53.584;10.084;2022-10-13T15:33:13;12.20;;;7.70;;
5153;SDS011;2595;53.584;10.084;2022-10-13T15:35:39;9.13;;;7.50;;
5153;SDS011;2595;53.584;10.084;2022-10-13T15:38:04;7.87;;;6.50;;
5153;SDS011;2595;53.584;10.084;2022-10-13T15:40:30;9.03;;;7.20;;
5153;SDS011;2595;53.584;10.084;2022-10-13T15:42:59;13.70;;;9.67;;
5153;SDS011;2595;53.584;10.084;2022-10-13T15:45:25;8.93;;;7.70;;
5153;SDS011;2595;53.584;10.084;2022-10-13T15:47:51;11.77;;;7.77;;
5153;SDS011;2595;53.584;10.084;2022-10-13T15:50:17;12.27;;;8.83;;
5153;SDS011;2595;53.584;10.084;2022-10-13T15:52:43;8.63;;;7.77;;
5153;SDS011;2595;53.584;10.084;2022-10-13T15:55:09;8.30;;;7.63;;
5153;SDS011;2595;53.584;10.084;2022-10-13T15:57:36;20.07;;;8.77;;
5153;SDS011;2595;53.584;10.084;2022-10-13T16:00:06;15.87;;;9.07;;
5153;SDS011;2595;53.584;10.084;2022-10-13T16:02:32;9.67;;;7.27;;
5153;SDS011;2595;53.584;10.084;2022-10-13T16:04:58;12.13;;;8.33;;
5153;SDS011;2595;53.584;10.084;2022-10-13T16:07:28;9.37;;;8.10;;
5153;SDS011;2595;53.584;10.084;2022-10-13T16:09:57;13.57;;;7.40;;
5153;SDS011;2595;53.584;10.084;2022-10-13T16:12:23;12.37;;;7.67;;
5153;SDS011;2595;53.584;10.084;2022-10-13T16:14:49;7.73;;;7.13;;
5153;SDS011;2595;53.584;10.084;2022-10-13T16:17:14;7.00;;;6.50;;
5153;SDS011;2595;53.584;10.084;2022-10-13T16:19:40;11.27;;;7.70;;
5153;SDS011;2595;53.584;10.084;2022-10-13T16:22:06;8.13;;;7.33;;
5153;SDS011;2595;53.584;10.084;2022-10-13T16:24:31;7.10;;;5.60;;
5153;SDS011;2595;53.584;10.084;2022-10-13T16:26:58;7.07;;;6.20;;
5153;SDS011;2595;53.584;10.084;2022-10-13T16:29:24;12.27;;;6.20;;
5153;SDS011;2595;53.584;10.084;2022-10-13T16:31:50;7.43;;;6.33;;
5153;SDS011;2595;53.584;10.084;2022-10-13T16:34:16;7.67;;;6.50;;
5153;SDS011;2595;53.584;10.084;2022-10-13T16:36:42;9.90;;;7.30;;
5153;SDS011;2595;53.584;10.084;2022-10-13T16:39:07;14.90;;;7.37;;
5153;SDS011;2595;53.584;10.084;2022-10-13T16:41:33;11.97;;;7.83;;
5153;SDS011;2595;53.584;10.084;2022-10-13T16:43:59;6.90;;;6.33;;
5153;SDS011;2595;53.584;10.084;2022-10-13T16:46:24;12.17;;;7.43;;
5153;SDS011;2595;53.584;10.084;2022-10-13T16:48:51;8.60;;;7.23;;